sensor_id;sensor_type;location;lat;lon;timestamp;pressure;altitude;pressure_sealevel;temperature;humidity
50636;BME280;36598;46.054;11.130;2023-02-17T00:00:16;100476.16;;;6.97;58.67
50636;BME280;36598;46.054;11.130;2023-02-17T00:02:41;100479.66;;;7.13;58.42
50636;BME280;36598;46.054;11.130;2023-02-17T00:05:07;100482.44;;;7.52;57.41
50636;BME280;36598;46.054;11.130;2023-02-17T00:07:32;100478.88;;;6.77;59.07
50636;BME280;36598;46.054;11.130;2023-02-17T00:09:58;100476.53;;;6.95;58.98
50636;BME280;36598;46.054;11.130;2023-02-17T00:12:23;100478.34;;;7.07;58.47
50636;BME280;36598;46.054;11.130;2023-02-17T00:14:48;100476.84;;;6.59;60.06
50636;BME280;36598;46.054;11.130;2023-02-17T00:17:14;100475.84;;;6.83;59.35
50636;BME280;36598;46.054;11.130;2023-02-17T00:19:39;100472.41;;;7.05;58.67
50636;BME280;36598;46.054;11.130;2023-02-17T00:22:04;100470.53;;;6.58;60.36
50636;BME280;36598;46.054;11.130;2023-02-17T00:24:30;100474.78;;;6.71;60.03
50636;BME280;36598;46.054;11.130;2023-02-17T00:26:56;100463.19;;;6.97;58.79
50636;BME280;36598;46.054;11.130;2023-02-17T00:29:22;100468.81;;;7.20;58.10
50636;BME280;36598;46.054;11.130;2023-02-17T00:31:47;100471.28;;;7.25;58.25
50636;BME280;36598;46.054;11.130;2023-02-17T00:34:13;100476.03;;;6.58;60.29
50636;BME280;36598;46.054;11.130;2023-02-17T00:36:40;100470.81;;;6.53;60.40
50636;BME280;36598;46.054;11.130;2023-02-17T00:39:06;100458.75;;;6.42;61.01
50636;BME280;36598;46.054;11.130;2023-02-17T00:41:31;100461.97;;;6.44;60.93
50636;BME280;36598;46.054;11.130;2023-02-17T00:43:57;100461.38;;;6.86;59.13
50636;BME280;36598;46.054;11.130;2023-02-17T00:46:23;100461.09;;;6.91;59.36
50636;BME280;36598;46.054;11.130;2023-02-17T00:48:48;100468.41;;;6.67;59.84
50636;BME280;36598;46.054;11.130;2023-02-17T00:51:14;100478.41;;;6.75;59.70
50636;BME280;36598;46.054;11.130;2023-02-17T00:53:40;100476.31;;;6.37;60.35
50636;BME280;36598;46.054;11.130;2023-02-17T00:56:05;100485.16;;;6.78;59.52
50636;BME280;36598;46.054;11.130;2023-02-17T00:58:31;100479.78;;;6.66;60.19
50636;BME280;36598;46.054;11.130;2023-02-17T01:00:57;100475.13;;;6.86;59.59
50636;BME280;36598;46.054;11.130;2023-02-17T01:03:22;100477.16;;;6.89;59.50
50636;BME280;36598;46.054;11.130;2023-02-17T01:05:48;100475.53;;;6.37;61.06
50636;BME280;36598;46.054;11.130;2023-02-17T01:08:14;100488.09;;;6.06;62.13
50636;BME280;36598;46.054;11.130;2023-02-17T01:10:40;100492.03;;;6.37;61.42
50636;BME280;36598;46.054;11.130;2023-02-17T01:13:06;100494.91;;;6.12;61.88
50636;BME280;36598;46.054;11.130;2023-02-17T01:15:53;100496.53;;;6.45;61.10
50636;BME280;36598;46.054;11.130;2023-02-17T01:18:17;100496.91;;;6.27;61.25
50636;BME280;36598;46.054;11.130;2023-02-17T01:20:44;100495.13;;;6.19;61.44
50636;BME280;36598;46.054;11.130;2023-02-17T01:23:09;100496.34;;;6.38;60.56
50636;BME280;36598;46.054;11.130;2023-02-17T01:25:35;100500.00;;;6.26;61.09
50636;BME280;36598;46.054;11.130;2023-02-17T01:28:01;100496.28;;;6.18;61.44
50636;BME280;36598;46.054;11.130;2023-02-17T01:30:26;100491.50;;;6.47;60.78
50636;BME280;36598;46.054;11.130;2023-02-17T01:32:52;100495.66;;;6.09;61.72
50636;BME280;36598;46.054;11.130;2023-02-17T01:35:17;100489.16;;;6.01;61.81
50636;BME280;36598;46.054;11.130;2023-02-17T01:37:42;100482.63;;;6.22;61.43
50636;BME280;36598;46.054;11.130;2023-02-17T01:40:08;100479.88;;;6.22;61.70
50636;BME280;36598;46.054;11.130;2023-02-17T01:42:33;100483.78;;;6.37;61.42
50636;BME280;36598;46.054;11.130;2023-02-17T01:47:46;100479.41;;;6.20;61.36
50636;BME280;36598;46.054;11.130;2023-02-17T01:50:13;100480.38;;;5.96;62.57
50636;BME280;36598;46.054;11.130;2023-02-17T01:52:39;100485.63;;;6.01;62.04
50636;BME280;36598;46.054;11.130;2023-02-17T01:55:07;100485.50;;;5.69;63.00
50636;BME280;36598;46.054;11.130;2023-02-17T01:57:35;100484.91;;;5.48;63.78
50636;BME280;36598;46.054;11.130;2023-02-17T02:00:03;100475.13;;;5.63;63.77
50636;BME280;36598;46.054;11.130;2023-02-17T02:02:28;100471.59;;;5.62;63.32
50636;BME280;36598;46.054;11.130;2023-02-17T02:04:54;100463.09;;;5.95;62.60
50636;BME280;36598;46.054;11.130;2023-02-17T02:07:22;100463.03;;;6.23;61.26
50636;BME280;36598;46.054;11.130;2023-02-17T02:09:55;100464.34;;;6.14;61.74
50636;BME280;36598;46.054;11.130;2023-02-17T02:12:22;100460.00;;;6.28;60.49
50636;BME280;36598;46.054;11.130;2023-02-17T02:14:47;100467.72;;;6.07;61.25
50636;BME280;36598;46.054;11.130;2023-02-17T02:32:45;100471.03;;;5.28;64.26
50636;BME280;36598;46.054;11.130;2023-02-17T02:35:15;100461.34;;;5.47;64.10
50636;BME280;36598;46.054;11.130;2023-02-17T02:37:49;100457.41;;;5.60;63.19
50636;BME280;36598;46.054;11.130;2023-02-17T02:40:18;100455.25;;;5.82;62.43
50636;BME280;36598;46.054;11.130;2023-02-17T02:42:44;100451.50;;;6.02;61.73
50636;BME280;36598;46.054;11.130;2023-02-17T02:45:10;100449.28;;;5.92;62.02
50636;BME280;36598;46.054;11.130;2023-02-17T02:47:43;100455.66;;;5.96;61.35
50636;BME280;36598;46.054;11.130;2023-02-17T02:50:10;100456.19;;;6.01;62.18
50636;BME280;36598;46.054;11.130;2023-02-17T02:57:51;100460.25;;;5.92;62.14
50636;BME280;36598;46.054;11.130;2023-02-17T03:02:48;100462.84;;;5.72;62.61
50636;BME280;36598;46.054;11.130;2023-02-17T03:10:17;100466.28;;;5.69;62.54
50636;BME280;36598;46.054;11.130;2023-02-17T03:12:42;100466.16;;;5.50;63.06
50636;BME280;36598;46.054;11.130;2023-02-17T03:15:11;100463.16;;;5.55;62.58
50636;BME280;36598;46.054;11.130;2023-02-17T03:17:38;100453.44;;;5.58;63.29
50636;BME280;36598;46.054;11.130;2023-02-17T03:20:04;100458.25;;;5.20;64.31
50636;BME280;36598;46.054;11.130;2023-02-17T03:22:34;100458.75;;;5.38;63.62
50636;BME280;36598;46.054;11.130;2023-02-17T03:25:00;100453.94;;;5.07;64.96
50636;BME280;36598;46.054;11.130;2023-02-17T03:27:26;100460.63;;;4.94;65.22
50636;BME280;36598;46.054;11.130;2023-02-17T03:29:51;100460.31;;;5.23;64.43
50636;BME280;36598;46.054;11.130;2023-02-17T03:32:17;100460.81;;;5.01;65.27
50636;BME280;36598;46.054;11.130;2023-02-17T03:34:42;100470.31;;;5.03;65.45
50636;BME280;36598;46.054;11.130;2023-02-17T03:37:07;100477.94;;;5.22;64.65
50636;BME280;36598;46.054;11.130;2023-02-17T03:39:32;100471.31;;;5.11;64.83
50636;BME280;36598;46.054;11.130;2023-02-17T03:41:58;100475.50;;;5.21;64.58
50636;BME280;36598;46.054;11.130;2023-02-17T03:44:23;100474.94;;;5.27;64.30
50636;BME280;36598;46.054;11.130;2023-02-17T03:46:48;100475.72;;;5.56;62.93
50636;BME280;36598;46.054;11.130;2023-02-17T03:49:14;100484.84;;;5.44;63.28
50636;BME280;36598;46.054;11.130;2023-02-17T03:51:39;100485.63;;;5.45;62.73
50636;BME280;36598;46.054;11.130;2023-02-17T03:54:04;100490.91;;;5.38;62.70
50636;BME280;36598;46.054;11.130;2023-02-17T03:56:30;100485.19;;;4.78;64.71
50636;BME280;36598;46.054;11.130;2023-02-17T03:58:55;100490.28;;;5.04;64.52
50636;BME280;36598;46.054;11.130;2023-02-17T04:01:21;100496.94;;;5.43;63.41
50636;BME280;36598;46.054;11.130;2023-02-17T04:03:46;100501.47;;;5.51;62.77
50636;BME280;36598;46.054;11.130;2023-02-17T04:06:11;100504.59;;;5.50;62.52
50636;BME280;36598;46.054;11.130;2023-02-17T04:08:37;100503.28;;;5.60;62.42
50636;BME280;36598;46.054;11.130;2023-02-17T04:11:03;100499.50;;;5.36;62.63
50636;BME280;36598;46.054;11.130;2023-02-17T04:13:29;100498.09;;;4.90;64.44
50636;BME280;36598;46.054;11.130;2023-02-17T04:15:55;100498.78;;;4.87;64.64
50636;BME280;36598;46.054;11.130;2023-02-17T04:18:20;100499.25;;;4.89;65.21
50636;BME280;36598;46.054;11.130;2023-02-17T04:20:46;100502.44;;;4.78;65.13
50636;BME280;36598;46.054;11.130;2023-02-17T04:23:12;100505.59;;;5.05;64.33
50636;BME280;36598;46.054;11.130;2023-02-17T04:25:38;100499.53;;;5.12;64.03
50636;BME280;36598;46.054;11.130;2023-02-17T04:28:04;100506.06;;;5.19;63.52
50636;BME280;36598;46.054;11.130;2023-02-17T04:30:30;100512.25;;;4.92;64.57
50636;BME280;36598;46.054;11.130;2023-02-17T04:32:55;100507.78;;;4.26;66.92
50636;BME280;36598;46.054;11.130;2023-02-17T04:35:20;100505.41;;;4.49;66.70
50636;BME280;36598;46.054;11.130;2023-02-17T04:37:45;100505.66;;;4.68;65.89
50636;BME280;36598;46.054;11.130;2023-02-17T04:40:11;100503.59;;;4.53;66.10
50636;BME280;36598;46.054;11.130;2023-02-17T04:42:37;100506.81;;;4.67;65.82
50636;BME280;36598;46.054;11.130;2023-02-17T04:45:02;100486.88;;;4.95;65.10
50636;BME280;36598;46.054;11.130;2023-02-17T04:47:28;100491.69;;;4.98;64.69
50636;BME280;36598;46.054;11.130;2023-02-17T04:49:53;100501.28;;;5.04;64.75
50636;BME280;36598;46.054;11.130;2023-02-17T04:52:18;100500.47;;;5.16;64.41
50636;BME280;36598;46.054;11.130;2023-02-17T04:54:44;100486.47;;;4.81;64.99
50636;BME280;36598;46.054;11.130;2023-02-17T04:57:09;100498.22;;;4.44;66.11
50636;BME280;36598;46.054;11.130;2023-02-17T04:59:34;100494.44;;;4.61;65.61
50636;BME280;36598;46.054;11.130;2023-02-17T05:01:59;100501.19;;;4.51;66.31
50636;BME280;36598;46.054;11.130;2023-02-17T05:04:25;100508.84;;;4.58;65.64
50636;BME280;36598;46.054;11.130;2023-02-17T05:06:50;100510.88;;;4.24;67.03
50636;BME280;36598;46.054;11.130;2023-02-17T05:09:15;100506.41;;;4.32;66.90
50636;BME280;36598;46.054;11.130;2023-02-17T05:11:40;100509.84;;;4.53;65.99
50636;BME280;36598;46.054;11.130;2023-02-17T05:14:06;100508.16;;;4.73;65.21
50636;BME280;36598;46.054;11.130;2023-02-17T05:16:31;100508.03;;;4.58;66.02
50636;BME280;36598;46.054;11.130;2023-02-17T05:18:56;100507.25;;;4.82;65.04
50636;BME280;36598;46.054;11.130;2023-02-17T05:21:22;100513.16;;;4.22;66.69
50636;BME280;36598;46.054;11.130;2023-02-17T05:23:47;100507.22;;;4.45;65.94
50636;BME280;36598;46.054;11.130;2023-02-17T05:26:12;100508.94;;;4.25;66.32
50636;BME280;36598;46.054;11.130;2023-02-17T05:28:37;100511.81;;;4.53;65.38
50636;BME280;36598;46.054;11.130;2023-02-17T05:31:03;100520.94;;;4.57;65.10
50636;BME280;36598;46.054;11.130;2023-02-17T05:33:29;100512.34;;;4.22;65.81
50636;BME280;36598;46.054;11.130;2023-02-17T05:35:55;100511.91;;;4.32;66.16
50636;BME280;36598;46.054;11.130;2023-02-17T05:38:20;100514.44;;;4.37;65.97
50636;BME280;36598;46.054;11.130;2023-02-17T05:40:46;100512.72;;;4.45;65.23
50636;BME280;36598;46.054;11.130;2023-02-17T05:43:11;100518.09;;;4.66;64.46
50636;BME280;36598;46.054;11.130;2023-02-17T05:45:36;100520.72;;;4.74;64.32
50636;BME280;36598;46.054;11.130;2023-02-17T05:48:01;100523.94;;;4.89;63.82
50636;BME280;36598;46.054;11.130;2023-02-17T05:50:27;100526.91;;;4.71;64.13
50636;BME280;36598;46.054;11.130;2023-02-17T05:52:52;100524.72;;;4.65;64.70
50636;BME280;36598;46.054;11.130;2023-02-17T05:55:17;100525.41;;;4.86;63.98
50636;BME280;36598;46.054;11.130;2023-02-17T05:57:43;100524.59;;;4.73;64.13
50636;BME280;36598;46.054;11.130;2023-02-17T06:00:08;100531.91;;;4.69;64.03
50636;BME280;36598;46.054;11.130;2023-02-17T06:02:34;100535.56;;;4.61;64.65
50636;BME280;36598;46.054;11.130;2023-02-17T06:04:59;100541.91;;;4.16;66.13
50636;BME280;36598;46.054;11.130;2023-02-17T06:07:24;100536.38;;;4.62;64.96
50636;BME280;36598;46.054;11.130;2023-02-17T06:09:50;100538.78;;;4.06;66.21
50636;BME280;36598;46.054;11.130;2023-02-17T06:12:15;100543.25;;;4.10;66.63
50636;BME280;36598;46.054;11.130;2023-02-17T06:14:40;100543.25;;;4.10;66.60
50636;BME280;36598;46.054;11.130;2023-02-17T06:17:05;100548.84;;;4.59;65.08
50636;BME280;36598;46.054;11.130;2023-02-17T06:19:31;100548.84;;;4.59;64.35
50636;BME280;36598;46.054;11.130;2023-02-17T06:21:56;100551.56;;;4.59;64.65
50636;BME280;36598;46.054;11.130;2023-02-17T06:24:22;100546.31;;;4.78;63.44
50636;BME280;36598;46.054;11.130;2023-02-17T06:26:47;100553.41;;;4.55;64.47
50636;BME280;36598;46.054;11.130;2023-02-17T06:29:12;100546.16;;;4.38;64.39
50636;BME280;36598;46.054;11.130;2023-02-17T06:31:37;100552.50;;;3.85;66.70
50636;BME280;36598;46.054;11.130;2023-02-17T06:34:03;100554.00;;;4.27;65.41
50636;BME280;36598;46.054;11.130;2023-02-17T06:36:28;100558.19;;;4.70;64.01
50636;BME280;36598;46.054;11.130;2023-02-17T06:38:53;100554.91;;;5.01;62.78
50636;BME280;36598;46.054;11.130;2023-02-17T06:41:19;100557.84;;;4.96;62.70
50636;BME280;36598;46.054;11.130;2023-02-17T06:43:44;100558.88;;;4.55;63.61
50636;BME280;36598;46.054;11.130;2023-02-17T06:46:09;100560.38;;;4.65;63.86
50636;BME280;36598;46.054;11.130;2023-02-17T06:48:34;100565.03;;;5.01;63.11
50636;BME280;36598;46.054;11.130;2023-02-17T06:51:00;100564.03;;;5.06;62.60
50636;BME280;36598;46.054;11.130;2023-02-17T06:53:25;100566.44;;;4.95;62.78
50636;BME280;36598;46.054;11.130;2023-02-17T06:55:50;100573.19;;;4.85;62.97
50636;BME280;36598;46.054;11.130;2023-02-17T06:58:16;100574.50;;;5.40;61.41
50636;BME280;36598;46.054;11.130;2023-02-17T07:00:41;100572.97;;;5.55;60.29
50636;BME280;36598;46.054;11.130;2023-02-17T07:03:06;100571.91;;;5.72;60.66
50636;BME280;36598;46.054;11.130;2023-02-17T07:05:35;100574.41;;;5.37;61.21
50636;BME280;36598;46.054;11.130;2023-02-17T07:08:01;100569.19;;;5.60;60.68
50636;BME280;36598;46.054;11.130;2023-02-17T07:10:26;100572.41;;;5.90;60.04
50636;BME280;36598;46.054;11.130;2023-02-17T07:12:51;100566.63;;;6.07;59.37
50636;BME280;36598;46.054;11.130;2023-02-17T07:15:16;100570.81;;;5.89;59.60
50636;BME280;36598;46.054;11.130;2023-02-17T07:17:42;100569.41;;;5.67;60.29
50636;BME280;36598;46.054;11.130;2023-02-17T07:20:07;100575.25;;;5.65;60.45
50636;BME280;36598;46.054;11.130;2023-02-17T07:22:33;100577.44;;;6.00;59.38
50636;BME280;36598;46.054;11.130;2023-02-17T07:24:58;100572.53;;;6.21;58.63
50636;BME280;36598;46.054;11.130;2023-02-17T07:27:23;100572.19;;;6.39;58.58
50636;BME280;36598;46.054;11.130;2023-02-17T07:29:49;100571.50;;;5.86;59.83
50636;BME280;36598;46.054;11.130;2023-02-17T07:32:14;100573.03;;;6.11;59.74
50636;BME280;36598;46.054;11.130;2023-02-17T07:34:40;100569.38;;;6.51;58.20
50636;BME280;36598;46.054;11.130;2023-02-17T07:37:06;100573.38;;;6.69;57.58
50636;BME280;36598;46.054;11.130;2023-02-17T07:39:32;100563.16;;;6.86;57.29
50636;BME280;36598;46.054;11.130;2023-02-17T07:41:57;100571.19;;;7.10;56.83
50636;BME280;36598;46.054;11.130;2023-02-17T07:44:25;100573.34;;;6.53;57.40
50636;BME280;36598;46.054;11.130;2023-02-17T07:46:51;100567.41;;;6.67;57.71
50636;BME280;36598;46.054;11.130;2023-02-17T07:49:16;100567.84;;;6.53;57.58
50636;BME280;36598;46.054;11.130;2023-02-17T07:51:41;100577.97;;;6.65;57.00
50636;BME280;36598;46.054;11.130;2023-02-17T07:54:07;100572.81;;;6.80;57.28
50636;BME280;36598;46.054;11.130;2023-02-17T07:56:32;100573.91;;;7.42;55.33
50636;BME280;36598;46.054;11.130;2023-02-17T07:58:57;100580.50;;;7.57;54.93
50636;BME280;36598;46.054;11.130;2023-02-17T08:01:23;100577.78;;;7.76;54.78
50636;BME280;36598;46.054;11.130;2023-02-17T08:03:49;100580.28;;;7.65;54.23
50636;BME280;36598;46.054;11.130;2023-02-17T08:06:19;100585.59;;;7.74;54.35
50636;BME280;36598;46.054;11.130;2023-02-17T08:08:45;100586.03;;;7.76;53.52
50636;BME280;36598;46.054;11.130;2023-02-17T08:11:29;100579.22;;;7.89;53.09
50636;BME280;36598;46.054;11.130;2023-02-17T08:14:14;100589.59;;;8.15;52.43
50636;BME280;36598;46.054;11.130;2023-02-17T08:16:39;100598.28;;;8.17;51.93
50636;BME280;36598;46.054;11.130;2023-02-17T08:19:04;100589.91;;;8.52;50.70
50636;BME280;36598;46.054;11.130;2023-02-17T08:21:30;100594.63;;;8.52;49.20
50636;BME280;36598;46.054;11.130;2023-02-17T08:23:55;100596.16;;;8.72;49.23
50636;BME280;36598;46.054;11.130;2023-02-17T08:26:20;100597.91;;;9.60;47.10
50636;BME280;36598;46.054;11.130;2023-02-17T08:28:46;100590.69;;;11.45;42.63
50636;BME280;36598;46.054;11.130;2023-02-17T08:31:23;100592.72;;;12.71;40.02
50636;BME280;36598;46.054;11.130;2023-02-17T08:33:49;100596.25;;;13.68;38.53
50636;BME280;36598;46.054;11.130;2023-02-17T08:36:15;100605.19;;;14.22;35.89
50636;BME280;36598;46.054;11.130;2023-02-17T08:38:40;100593.91;;;18.96;29.27
50636;BME280;36598;46.054;11.130;2023-02-17T08:41:13;100585.72;;;22.12;24.48
50636;BME280;36598;46.054;11.130;2023-02-17T08:43:39;100581.50;;;23.83;21.82
50636;BME280;36598;46.054;11.130;2023-02-17T08:46:08;100590.00;;;24.44;21.25
50636;BME280;36598;46.054;11.130;2023-02-17T08:48:33;100570.31;;;27.49;17.74
50636;BME280;36598;46.054;11.130;2023-02-17T08:50:59;100569.91;;;27.82;17.32
50636;BME280;36598;46.054;11.130;2023-02-17T08:53:24;100567.84;;;29.20;16.18
50636;BME280;36598;46.054;11.130;2023-02-17T08:55:49;100570.78;;;29.37;15.65
50636;BME280;36598;46.054;11.130;2023-02-17T08:58:14;100563.47;;;30.30;14.93
50636;BME280;36598;46.054;11.130;2023-02-17T09:00:40;100563.25;;;31.25;14.12
50636;BME280;36598;46.054;11.130;2023-02-17T09:03:05;100560.81;;;29.92;14.96
50636;BME280;36598;46.054;11.130;2023-02-17T09:05:31;100561.06;;;30.90;14.11
50636;BME280;36598;46.054;11.130;2023-02-17T09:07:57;100560.41;;;31.31;13.73
50636;BME280;36598;46.054;11.130;2023-02-17T09:10:22;100563.34;;;32.68;12.79
50636;BME280;36598;46.054;11.130;2023-02-17T09:12:47;100559.94;;;32.09;13.02
50636;BME280;36598;46.054;11.130;2023-02-17T09:15:13;100551.72;;;31.95;12.87
50636;BME280;36598;46.054;11.130;2023-02-17T09:17:38;100555.03;;;31.63;13.09
50636;BME280;36598;46.054;11.130;2023-02-17T09:20:04;100552.09;;;32.46;12.64
50636;BME280;36598;46.054;11.130;2023-02-17T09:22:30;100550.47;;;33.24;12.08
50636;BME280;36598;46.054;11.130;2023-02-17T09:24:56;100557.72;;;33.06;11.96
50636;BME280;36598;46.054;11.130;2023-02-17T09:27:21;100553.81;;;33.65;11.30
50636;BME280;36598;46.054;11.130;2023-02-17T09:29:46;100544.44;;;34.16;11.35
50636;BME280;36598;46.054;11.130;2023-02-17T09:32:12;100547.19;;;33.89;11.10
50636;BME280;36598;46.054;11.130;2023-02-17T09:34:37;100541.94;;;35.45;10.42
50636;BME280;36598;46.054;11.130;2023-02-17T09:37:03;100539.19;;;33.50;11.85
50636;BME280;36598;46.054;11.130;2023-02-17T09:39:33;100541.91;;;33.18;11.85
50636;BME280;36598;46.054;11.130;2023-02-17T09:41:59;100526.22;;;33.95;11.19
50636;BME280;36598;46.054;11.130;2023-02-17T09:44:25;100535.59;;;33.44;11.86
50636;BME280;36598;46.054;11.130;2023-02-17T09:46:53;100534.53;;;33.47;11.82
50636;BME280;36598;46.054;11.130;2023-02-17T09:49:20;100531.69;;;34.44;11.42
50636;BME280;36598;46.054;11.130;2023-02-17T09:51:54;100529.63;;;34.12;11.21
50636;BME280;36598;46.054;11.130;2023-02-17T09:54:23;100515.31;;;33.93;11.25
50636;BME280;36598;46.054;11.130;2023-02-17T09:56:51;100509.94;;;34.75;10.94
50636;BME280;36598;46.054;11.130;2023-02-17T09:59:24;100513.53;;;34.22;11.52
50636;BME280;36598;46.054;11.130;2023-02-17T10:01:51;100507.06;;;35.01;10.80
50636;BME280;36598;46.054;11.130;2023-02-17T10:04:29;100511.97;;;35.41;10.90
50636;BME280;36598;46.054;11.130;2023-02-17T10:07:01;100518.63;;;32.59;12.29
50636;BME280;36598;46.054;11.130;2023-02-17T10:09:31;100512.31;;;31.35;13.18
50636;BME280;36598;46.054;11.130;2023-02-17T10:12:10;100512.88;;;32.84;12.40
50636;BME280;36598;46.054;11.130;2023-02-17T10:14:48;100512.41;;;33.42;11.73
50636;BME280;36598;46.054;11.130;2023-02-17T10:17:32;100514.91;;;32.10;12.75
50636;BME280;36598;46.054;11.130;2023-02-17T10:22:27;100493.09;;;33.61;11.95
50636;BME280;36598;46.054;11.130;2023-02-17T10:24:52;100505.06;;;33.47;11.65
50636;BME280;36598;46.054;11.130;2023-02-17T10:32:20;100487.16;;;30.02;14.10
50636;BME280;36598;46.054;11.130;2023-02-17T10:34:52;100485.00;;;30.64;13.87
50636;BME280;36598;46.054;11.130;2023-02-17T10:37:31;100480.94;;;29.98;14.56
50636;BME280;36598;46.054;11.130;2023-02-17T10:39:59;100477.84;;;31.10;13.53
50636;BME280;36598;46.054;11.130;2023-02-17T10:42:27;100474.03;;;30.85;13.79
50636;BME280;36598;46.054;11.130;2023-02-17T10:44:59;100479.78;;;27.94;15.54
50636;BME280;36598;46.054;11.130;2023-02-17T10:47:26;100483.28;;;28.47;15.35
50636;BME280;36598;46.054;11.130;2023-02-17T10:49:53;100476.91;;;24.83;18.81
50636;BME280;36598;46.054;11.130;2023-02-17T10:52:22;100469.09;;;27.31;17.04
50636;BME280;36598;46.054;11.130;2023-02-17T10:54:53;100469.06;;;23.87;20.38
50636;BME280;36598;46.054;11.130;2023-02-17T10:57:23;100458.13;;;26.07;17.91
50636;BME280;36598;46.054;11.130;2023-02-17T10:59:51;100453.13;;;25.43;18.94
50636;BME280;36598;46.054;11.130;2023-02-17T11:04:43;100434.03;;;28.83;15.87
50636;BME280;36598;46.054;11.130;2023-02-17T11:07:13;100429.59;;;29.70;15.01
50636;BME280;36598;46.054;11.130;2023-02-17T11:09:44;100418.28;;;32.40;13.34
50636;BME280;36598;46.054;11.130;2023-02-17T11:12:10;100406.25;;;34.06;12.02
50636;BME280;36598;46.054;11.130;2023-02-17T11:14:36;100406.59;;;36.21;10.47
50636;BME280;36598;46.054;11.130;2023-02-17T11:17:12;100407.34;;;35.72;10.79
50636;BME280;36598;46.054;11.130;2023-02-17T11:19:38;100393.47;;;35.29;10.69
50636;BME280;36598;46.054;11.130;2023-02-17T11:22:04;100409.03;;;28.56;15.55
50636;BME280;36598;46.054;11.130;2023-02-17T11:24:30;100396.59;;;28.48;15.82
50636;BME280;36598;46.054;11.130;2023-02-17T11:26:57;100395.41;;;27.28;16.71
50636;BME280;36598;46.054;11.130;2023-02-17T11:29:23;100382.09;;;29.84;14.77
50636;BME280;36598;46.054;11.130;2023-02-17T11:34:21;100368.00;;;28.25;15.80
50636;BME280;36598;46.054;11.130;2023-02-17T11:36:55;100364.97;;;23.86;19.56
50636;BME280;36598;46.054;11.130;2023-02-17T11:39:21;100360.44;;;26.29;17.68
50636;BME280;36598;46.054;11.130;2023-02-17T11:41:47;100361.66;;;26.42;17.74
50636;BME280;36598;46.054;11.130;2023-02-17T11:44:20;100348.16;;;28.36;16.16
50636;BME280;36598;46.054;11.130;2023-02-17T11:46:49;100345.00;;;27.23;17.23
50636;BME280;36598;46.054;11.130;2023-02-17T12:04:57;100316.88;;;24.43;20.13
50636;BME280;36598;46.054;11.130;2023-02-17T12:15:20;100302.56;;;20.92;23.61
50636;BME280;36598;46.054;11.130;2023-02-17T12:22:49;100301.56;;;16.57;28.78
50636;BME280;36598;46.054;11.130;2023-02-17T12:25:26;100302.47;;;16.73;28.88
50636;BME280;36598;46.054;11.130;2023-02-17T12:38:09;100286.81;;;16.13;29.15
50636;BME280;36598;46.054;11.130;2023-02-17T12:40:36;100277.75;;;16.92;28.00
50636;BME280;36598;46.054;11.130;2023-02-17T12:43:07;100276.59;;;15.28;30.91
50636;BME280;36598;46.054;11.130;2023-02-17T12:45:41;100271.03;;;15.56;31.35
50636;BME280;36598;46.054;11.130;2023-02-17T12:51:01;100278.78;;;14.87;33.25
50636;BME280;36598;46.054;11.130;2023-02-17T12:55:58;100274.63;;;14.68;34.61
50636;BME280;36598;46.054;11.130;2023-02-17T12:58:29;100270.56;;;15.03;34.58
50636;BME280;36598;46.054;11.130;2023-02-17T13:03:20;100271.25;;;16.35;32.36
50636;BME280;36598;46.054;11.130;2023-02-17T13:05:47;100268.47;;;16.95;30.86
50636;BME280;36598;46.054;11.130;2023-02-17T13:10:41;100260.97;;;17.61;29.70
50636;BME280;36598;46.054;11.130;2023-02-17T13:13:24;100264.94;;;17.11;30.58
50636;BME280;36598;46.054;11.130;2023-02-17T13:15:59;100248.47;;;17.98;29.12
50636;BME280;36598;46.054;11.130;2023-02-17T13:18:26;100256.34;;;16.22;31.69
50636;BME280;36598;46.054;11.130;2023-02-17T13:28:36;100238.03;;;16.41;32.10
50636;BME280;36598;46.054;11.130;2023-02-17T13:31:23;100247.84;;;16.49;32.14
50636;BME280;36598;46.054;11.130;2023-02-17T13:33:56;100241.41;;;16.92;31.46
50636;BME280;36598;46.054;11.130;2023-02-17T13:38:52;100241.94;;;15.80;33.19
50636;BME280;36598;46.054;11.130;2023-02-17T13:41:19;100240.75;;;15.54;33.76
50636;BME280;36598;46.054;11.130;2023-02-17T13:43:45;100224.41;;;15.80;33.27
50636;BME280;36598;46.054;11.130;2023-02-17T13:46:12;100233.47;;;15.10;34.54
50636;BME280;36598;46.054;11.130;2023-02-17T13:48:40;100232.66;;;15.63;33.54
50636;BME280;36598;46.054;11.130;2023-02-17T13:51:06;100228.69;;;15.10;34.51
50636;BME280;36598;46.054;11.130;2023-02-17T13:53:33;100230.38;;;15.04;34.72
50636;BME280;36598;46.054;11.130;2023-02-17T13:56:00;100230.06;;;14.68;35.71
50636;BME280;36598;46.054;11.130;2023-02-17T13:58:27;100228.03;;;14.34;35.75
50636;BME280;36598;46.054;11.130;2023-02-17T14:00:53;100228.47;;;13.95;36.97
50636;BME280;36598;46.054;11.130;2023-02-17T14:03:20;100220.91;;;14.33;36.22
50636;BME280;36598;46.054;11.130;2023-02-17T14:05:46;100228.75;;;14.42;36.38
50636;BME280;36598;46.054;11.130;2023-02-17T14:10:46;100227.53;;;14.77;35.59
50636;BME280;36598;46.054;11.130;2023-02-17T14:13:12;100217.84;;;15.16;35.34
50636;BME280;36598;46.054;11.130;2023-02-17T14:15:47;100217.25;;;15.78;34.02
50636;BME280;36598;46.054;11.130;2023-02-17T14:18:13;100217.38;;;15.95;33.57
50636;BME280;36598;46.054;11.130;2023-02-17T14:20:39;100222.19;;;16.14;33.40
50636;BME280;36598;46.054;11.130;2023-02-17T14:23:09;100214.56;;;15.95;33.77
50636;BME280;36598;46.054;11.130;2023-02-17T14:25:42;100218.44;;;16.01;34.39
50636;BME280;36598;46.054;11.130;2023-02-17T14:28:43;100219.16;;;16.05;34.22